createdAt,value
2023-02-22T00:01:23.146Z,3.22
2023-02-22T00:04:13.134Z,3.17
2023-02-22T00:07:01.326Z,3.14
2023-02-22T00:09:49.456Z,3.12
2023-02-22T00:12:36.812Z,3.09
2023-02-22T00:15:28.297Z,3.06
2023-02-22T00:18:20.900Z,3.05
2023-02-22T00:21:10.634Z,3.02
2023-02-22T00:23:58.102Z,2.98
2023-02-22T00:26:48.089Z,2.92
2023-02-22T00:29:35.704Z,2.85
2023-02-22T00:32:23.099Z,2.82
2023-02-22T00:35:12.830Z,2.80
2023-02-22T00:38:03.543Z,2.79
2023-02-22T00:40:51.302Z,2.76
2023-02-22T00:43:38.761Z,2.71
2023-02-22T00:46:26.283Z,2.70
2023-02-22T00:49:13.610Z,2.70
2023-02-22T00:52:02.718Z,2.68
2023-02-22T00:54:50.477Z,2.66
2023-02-22T00:57:38.032Z,2.63
2023-02-22T01:00:29.027Z,2.58
2023-02-22T01:03:20.466Z,2.54
2023-02-22T01:06:08.245Z,2.49
2023-02-22T01:08:57.024Z,2.47
2023-02-22T01:11:45.358Z,2.43
2023-02-22T01:14:33.012Z,2.40
2023-02-22T01:17:20.441Z,2.40
2023-02-22T01:20:12.655Z,2.38
2023-02-22T01:23:06.538Z,2.36
2023-02-22T01:25:55.775Z,2.33
2023-02-22T01:28:43.020Z,2.28
2023-02-22T01:31:30.394Z,2.23
2023-02-22T01:34:18.638Z,2.20
2023-02-22T01:37:07.294Z,2.16
2023-02-22T01:39:54.948Z,2.14
2023-02-22T01:42:44.838Z,2.12
2023-02-22T01:45:54.803Z,2.11
2023-02-22T01:48:46.885Z,2.09
2023-02-22T01:51:39.905Z,2.09
2023-02-22T01:54:33.291Z,2.00
2023-02-22T01:57:25.526Z,1.98
2023-02-22T02:00:21.243Z,1.95
2023-02-22T02:03:14.879Z,1.95
2023-02-22T02:06:11.827Z,1.92
2023-02-22T02:09:05.777Z,1.88
2023-02-22T02:11:54.666Z,1.86
2023-02-22T02:14:43.860Z,1.83
2023-02-22T02:17:34.437Z,1.81
2023-02-22T02:20:32.060Z,1.78
2023-02-22T02:23:59.451Z,1.73
2023-02-22T02:27:12.559Z,1.71
2023-02-22T02:30:42.616Z,1.69
2023-02-22T02:33:41.455Z,1.65
2023-02-22T02:36:44.454Z,1.62
2023-02-22T02:39:41.905Z,1.57
2023-02-22T02:42:39.192Z,1.55
2023-02-22T02:45:37.818Z,1.53
2023-02-22T02:48:29.799Z,1.51
2023-02-22T02:51:22.334Z,1.48
2023-02-22T02:54:12.658Z,1.47
2023-02-22T02:57:00.391Z,1.44
2023-02-22T02:59:47.860Z,1.44
2023-02-22T03:02:56.173Z,1.43
2023-02-22T03:06:16.971Z,1.40
2023-02-22T03:09:21.341Z,1.34
2023-02-22T03:12:30.920Z,1.30
2023-02-22T03:15:36.341Z,1.27
2023-02-22T03:18:35.279Z,1.26
2023-02-22T03:21:33.537Z,1.23
2023-02-22T03:24:32.114Z,1.25
2023-02-22T03:27:27.981Z,1.23
2023-02-22T03:30:24.780Z,1.22
2023-02-22T03:33:20.830Z,1.22
2023-02-22T03:36:19.794Z,1.23
2023-02-22T03:39:16.006Z,1.17
2023-02-22T03:42:10.346Z,1.14
2023-02-22T03:45:04.536Z,1.14
2023-02-22T03:48:04.055Z,1.13
2023-02-22T03:50:52.027Z,1.13
2023-02-22T03:53:39.512Z,1.12
2023-02-22T03:56:35.739Z,1.11
2023-02-22T03:59:27.966Z,1.06
2023-02-22T04:02:18.984Z,1.01
2023-02-22T04:05:07.329Z,1.01
2023-02-22T04:07:56.062Z,1.00
2023-02-22T04:10:44.102Z,0.99
2023-02-22T04:13:31.518Z,0.99
2023-02-22T04:16:20.092Z,0.99
2023-02-22T04:19:10.540Z,0.98
2023-02-22T04:21:58.177Z,0.99
2023-02-22T04:24:46.350Z,0.98
2023-02-22T04:27:36.343Z,0.98
2023-02-22T04:30:24.372Z,0.96
2023-02-22T04:33:14.485Z,0.95
2023-02-22T04:36:02.209Z,0.93
2023-02-22T04:38:50.023Z,0.91
2023-02-22T04:41:37.590Z,0.92
2023-02-22T04:44:24.961Z,0.91
2023-02-22T04:47:12.394Z,0.90
2023-02-22T04:50:01.417Z,0.86
2023-02-22T04:52:49.088Z,0.85
2023-02-22T04:55:36.892Z,0.83
2023-02-22T04:58:24.855Z,0.81
2023-02-22T05:01:12.883Z,0.78
2023-02-22T05:04:00.976Z,0.77
2023-02-22T05:06:49.852Z,0.76
2023-02-22T05:09:37.604Z,0.74
2023-02-22T05:12:25.135Z,0.72
2023-02-22T05:15:17.984Z,0.69
2023-02-22T05:18:05.788Z,0.69
2023-02-22T05:20:53.516Z,0.66
2023-02-22T05:23:42.462Z,0.64
2023-02-22T05:26:30.107Z,0.63
2023-02-22T05:29:17.865Z,0.64
2023-02-22T05:32:06.738Z,0.64
2023-02-22T05:34:54.088Z,0.63
2023-02-22T05:37:41.542Z,0.58
2023-02-22T05:40:31.649Z,0.59
2023-02-22T05:43:19.490Z,0.56
2023-02-22T05:46:08.010Z,0.57
2023-02-22T05:48:55.417Z,0.54
2023-02-22T05:51:43.250Z,0.53
2023-02-22T05:54:30.633Z,0.50
2023-02-22T05:57:19.678Z,0.47
2023-02-22T06:00:10.571Z,0.46
2023-02-22T06:03:00.096Z,0.44
2023-02-22T06:05:48.114Z,0.42
2023-02-22T06:08:35.515Z,0.40
2023-02-22T06:11:22.802Z,0.37
2023-02-22T06:14:11.916Z,0.37
2023-02-22T06:17:00.875Z,0.32
2023-02-22T06:19:48.766Z,0.32
2023-02-22T06:22:36.117Z,0.32
2023-02-22T06:25:26.480Z,0.29
2023-02-22T06:28:14.282Z,0.29
2023-02-22T06:31:03.370Z,0.27
2023-02-22T06:33:51.088Z,0.26
2023-02-22T06:36:38.878Z,0.24
2023-02-22T06:39:26.532Z,0.22
2023-02-22T06:42:14.304Z,0.22
2023-02-22T06:45:01.891Z,0.20
2023-02-22T06:47:50.891Z,0.23
2023-02-22T06:50:38.786Z,0.24
2023-02-22T06:53:26.302Z,0.24
2023-02-22T06:56:13.540Z,0.22
2023-02-22T06:59:02.811Z,0.24
2023-02-22T07:01:51.044Z,0.25
2023-02-22T07:04:43.310Z,0.25
2023-02-22T07:07:31.072Z,0.29
2023-02-22T07:10:23.411Z,0.30
2023-02-22T07:13:10.684Z,0.29
2023-02-22T07:15:58.476Z,0.34
2023-02-22T07:18:46.042Z,0.34
2023-02-22T07:21:35.018Z,0.36
2023-02-22T07:24:22.721Z,0.41
2023-02-22T07:27:10.175Z,0.46
2023-02-22T07:29:57.750Z,0.53
2023-02-22T07:32:46.086Z,0.62
2023-02-22T07:35:37.051Z,0.68
2023-02-22T07:38:26.117Z,0.87
2023-02-22T07:41:14.576Z,1.04
2023-02-22T07:44:02.417Z,1.20
2023-02-22T07:46:50.803Z,1.42
2023-02-22T07:49:38.680Z,1.65
2023-02-22T07:52:26.029Z,1.74
2023-02-22T07:55:16.831Z,1.77
2023-02-22T07:58:08.758Z,1.82
2023-02-22T08:00:56.792Z,1.93
2023-02-22T08:03:47.427Z,2.03
2023-02-22T08:06:35.621Z,2.16
2023-02-22T08:09:23.668Z,2.33
2023-02-22T08:12:12.574Z,2.43
2023-02-22T08:15:00.075Z,2.64
2023-02-22T08:17:47.669Z,2.79
2023-02-22T08:20:35.022Z,3.04
2023-02-22T08:23:26.879Z,3.18
2023-02-22T08:26:18.397Z,3.33
2023-02-22T08:29:07.357Z,3.64
2023-02-22T08:31:55.171Z,3.76
2023-02-22T08:34:43.992Z,3.95
2023-02-22T08:37:31.236Z,4.04
2023-02-22T08:40:22.284Z,4.25
2023-02-22T08:43:09.667Z,4.43
2023-02-22T08:45:58.718Z,4.57
2023-02-22T08:48:52.100Z,4.78
2023-02-22T08:51:39.829Z,4.86
2023-02-22T08:54:27.283Z,5.05
2023-02-22T08:57:14.906Z,5.14
2023-02-22T09:00:02.803Z,5.22
2023-02-22T09:02:51.832Z,5.48
2023-02-22T09:05:39.621Z,5.52
2023-02-22T09:08:27.035Z,5.68
2023-02-22T09:11:14.909Z,5.84
2023-02-22T09:14:02.707Z,5.89
2023-02-22T09:16:50.400Z,6.27
2023-02-22T09:19:39.290Z,6.39
2023-02-22T09:22:26.707Z,6.72
2023-02-22T09:25:17.281Z,6.86
2023-02-22T09:28:05.329Z,7.13
2023-02-22T09:30:53.641Z,7.35
2023-02-22T09:33:42.870Z,7.42
2023-02-22T09:36:31.828Z,7.62
2023-02-22T09:39:21.651Z,7.85
2023-02-22T09:42:17.812Z,7.96
2023-02-22T09:45:16.159Z,8.10
2023-02-22T09:48:21.185Z,8.14
2023-02-22T09:51:20.698Z,8.39
2023-02-22T09:54:22.681Z,8.56
2023-02-22T09:57:20.135Z,8.68
2023-02-22T10:00:19.100Z,9.11
2023-02-22T10:03:22.959Z,9.23
2023-02-22T10:06:15.565Z,9.40
2023-02-22T10:09:07.990Z,9.51
2023-02-22T10:12:09.203Z,9.57
2023-02-22T10:15:42.126Z,9.73
2023-02-22T10:19:08.503Z,9.92
2023-02-22T10:22:22.069Z,10.23
2023-02-22T10:25:15.080Z,10.39
2023-02-22T10:28:14.409Z,10.48
2023-02-22T10:31:08.462Z,10.53
2023-02-22T10:34:02.446Z,10.52
2023-02-22T10:36:57.670Z,10.76
2023-02-22T10:39:49.399Z,10.98
2023-02-22T10:42:37.146Z,11.14
2023-02-22T10:45:32.266Z,11.45
2023-02-22T10:48:22.564Z,11.51
2023-02-22T10:51:11.938Z,11.58
2023-02-22T10:54:22.327Z,11.90
2023-02-22T10:57:13.528Z,12.09
2023-02-22T11:00:19.614Z,12.29
2023-02-22T11:03:23.890Z,12.45
2023-02-22T11:06:21.728Z,12.62
2023-02-22T11:09:17.938Z,12.88
2023-02-22T11:12:19.376Z,13.18
2023-02-22T11:15:30.081Z,13.41
2023-02-22T11:18:27.706Z,13.65
2023-02-22T11:21:24.165Z,13.94
2023-02-22T11:27:06.851Z,14.47
2023-02-22T11:29:54.482Z,14.71
2023-02-22T11:32:47.933Z,14.83
2023-02-22T11:35:40.887Z,14.61
2023-02-22T11:38:30.982Z,15.10
2023-02-22T11:41:27.523Z,14.91
2023-02-22T11:44:25.371Z,15.05
2023-02-22T11:47:13.943Z,15.06
2023-02-22T11:50:02.277Z,15.18
2023-02-22T11:53:05.668Z,15.68
2023-02-22T11:56:16.111Z,15.15
2023-02-22T11:59:22.215Z,15.81
2023-02-22T12:02:36.565Z,15.45
2023-02-22T12:05:42.734Z,15.50
2023-02-22T12:08:50.692Z,16.23
2023-02-22T12:11:54.858Z,16.57
2023-02-22T12:14:55.752Z,16.93
2023-02-22T12:18:01.961Z,16.33
2023-02-22T12:20:56.843Z,17.01
2023-02-22T12:23:54.555Z,16.95
2023-02-22T12:26:48.187Z,17.60
2023-02-22T12:29:43.682Z,17.78
2023-02-22T12:32:41.628Z,18.02
2023-02-22T12:35:34.986Z,17.83
2023-02-22T12:38:32.995Z,18.24
2023-02-22T12:41:33.664Z,17.41
2023-02-22T12:44:29.538Z,17.05
2023-02-22T12:47:24.730Z,18.04
2023-02-22T12:50:22.376Z,18.34
2023-02-22T12:53:23.563Z,19.04
2023-02-22T12:56:26.926Z,18.67
2023-02-22T12:59:24.546Z,18.18
2023-02-22T13:02:21.359Z,18.81
2023-02-22T13:05:17.839Z,18.58
2023-02-22T13:08:28.218Z,18.66
2023-02-22T13:11:29.405Z,18.19
2023-02-22T13:14:47.716Z,19.12
2023-02-22T13:17:47.414Z,19.65
2023-02-22T13:20:42.909Z,19.46
2023-02-22T13:23:45.835Z,19.44
2023-02-22T13:26:41.671Z,19.63
2023-02-22T13:29:35.542Z,19.99
2023-02-22T13:32:48.688Z,18.68
2023-02-22T13:35:55.043Z,19.00
2023-02-22T13:39:29.060Z,18.86
2023-02-22T13:43:01.773Z,19.23
2023-02-22T13:46:31.928Z,19.33
2023-02-22T13:50:13.761Z,19.99
2023-02-22T13:53:09.771Z,19.53
2023-02-22T13:56:01.715Z,19.72
2023-02-22T13:58:56.949Z,19.08
2023-02-22T14:01:48.512Z,19.45
2023-02-22T14:04:42.921Z,19.95
2023-02-22T14:07:58.013Z,20.10
2023-02-22T14:10:50.496Z,20.30
2023-02-22T14:14:14.552Z,20.26
2023-02-22T14:17:29.834Z,20.37
2023-02-22T14:20:32.135Z,20.23
2023-02-22T14:23:36.396Z,20.42
2023-02-22T14:26:29.752Z,20.46
2023-02-22T14:29:21.747Z,20.43
2023-02-22T14:32:12.918Z,20.27
2023-02-22T14:35:09.595Z,20.24
2023-02-22T14:38:03.958Z,20.18
2023-02-22T14:40:55.121Z,20.14
2023-02-22T14:43:43.797Z,20.09
2023-02-22T14:46:41.818Z,20.04
2023-02-22T14:49:37.116Z,19.95
2023-02-22T14:52:30.194Z,19.86
2023-02-22T14:55:25.007Z,19.77
2023-02-22T14:58:19.800Z,19.65
2023-02-22T15:01:47.304Z,19.48
2023-02-22T15:04:43.866Z,19.33
2023-02-22T15:07:35.773Z,19.20
2023-02-22T15:10:31.601Z,19.05
2023-02-22T15:13:23.951Z,18.90
2023-02-22T15:16:16.184Z,18.76
2023-02-22T15:19:08.322Z,18.64
2023-02-22T15:22:00.713Z,18.53
2023-02-22T15:25:00.231Z,18.39
2023-02-22T15:27:48.362Z,18.26
2023-02-22T15:30:36.105Z,18.15
2023-02-22T15:33:37.993Z,18.05
2023-02-22T15:36:31.000Z,17.94
2023-02-22T15:39:26.990Z,17.83
2023-02-22T15:42:20.705Z,17.71
2023-02-22T15:45:09.173Z,17.57
2023-02-22T15:47:58.623Z,17.48
2023-02-22T15:51:09.136Z,17.40
2023-02-22T15:54:01.719Z,17.21
2023-02-22T15:56:56.514Z,17.13
2023-02-22T15:59:53.020Z,17.04
2023-02-22T16:02:42.353Z,16.95
2023-02-22T16:05:40.253Z,16.87
2023-02-22T16:08:54.445Z,16.77
2023-02-22T16:11:45.370Z,16.66
2023-02-22T16:14:44.882Z,16.55
2023-02-22T16:17:41.180Z,16.45
2023-02-22T16:20:36.192Z,16.33
2023-02-22T16:23:26.493Z,16.22
2023-02-22T16:26:27.734Z,16.12
2023-02-22T16:29:27.705Z,15.99
2023-02-22T16:32:17.741Z,15.88
2023-02-22T16:35:05.611Z,15.75
2023-02-22T16:37:59.173Z,15.64
2023-02-22T16:40:52.436Z,15.52
2023-02-22T16:43:40.586Z,15.40
2023-02-22T16:46:28.463Z,15.29
2023-02-22T16:49:17.000Z,15.18
2023-02-22T16:52:08.933Z,15.06
2023-02-22T16:54:56.491Z,14.94
2023-02-22T16:57:45.476Z,14.83
2023-02-22T17:00:34.589Z,14.71
2023-02-22T17:03:23.101Z,14.60
2023-02-22T17:06:12.872Z,14.47
2023-02-22T17:09:00.335Z,14.35
2023-02-22T17:11:51.692Z,14.26
2023-02-22T17:14:40.970Z,14.14
2023-02-22T17:17:28.933Z,14.03
2023-02-22T17:20:30.018Z,13.94
2023-02-22T17:23:22.557Z,13.82
2023-02-22T17:26:13.616Z,13.72
2023-02-22T17:29:04.017Z,13.61
2023-02-22T17:31:53.222Z,13.49
2023-02-22T17:34:41.256Z,13.39
2023-02-22T17:37:29.031Z,13.29
2023-02-22T17:40:21.241Z,13.20
2023-02-22T17:43:09.728Z,13.15
2023-02-22T17:45:58.295Z,13.09
2023-02-22T17:48:48.358Z,13.00
2023-02-22T17:51:38.123Z,12.91
2023-02-22T17:54:27.491Z,12.83
2023-02-22T17:57:16.800Z,12.78
2023-02-22T18:00:12.499Z,12.72
2023-02-22T18:03:03.094Z,12.63
2023-02-22T18:05:58.074Z,12.56
2023-02-22T18:08:45.675Z,12.50
2023-02-22T18:11:33.060Z,12.41
2023-02-22T18:14:26.767Z,12.35
2023-02-22T18:17:14.549Z,12.27
2023-02-22T18:20:02.004Z,12.20
2023-02-22T18:22:49.983Z,12.15
2023-02-22T18:25:39.957Z,12.08
2023-02-22T18:28:33.233Z,12.03
2023-02-22T18:31:24.379Z,11.95
2023-02-22T18:34:13.479Z,11.88
2023-02-22T18:37:01.033Z,11.83
2023-02-22T18:39:48.774Z,11.74
2023-02-22T18:42:38.315Z,11.70
2023-02-22T18:45:27.947Z,11.63
2023-02-22T18:48:17.060Z,11.57
2023-02-22T18:51:10.700Z,11.51
2023-02-22T18:54:01.028Z,11.45
2023-02-22T18:56:49.052Z,11.39
2023-02-22T18:59:39.422Z,11.34
2023-02-22T19:02:27.099Z,11.28
2023-02-22T19:05:18.475Z,11.21
2023-02-22T19:08:11.287Z,11.15
2023-02-22T19:11:03.827Z,11.09
2023-02-22T19:13:57.821Z,11.02
2023-02-22T19:16:48.967Z,10.97
2023-02-22T19:19:37.829Z,10.90
2023-02-22T19:22:26.884Z,10.84
2023-02-22T19:25:18.388Z,10.76
2023-02-22T19:28:06.272Z,10.71
2023-02-22T19:30:53.690Z,10.64
2023-02-22T19:33:41.458Z,10.57
2023-02-22T19:36:29.259Z,10.51
2023-02-22T19:42:09.836Z,10.38
2023-02-22T19:44:57.965Z,10.30
2023-02-22T19:47:46.535Z,10.22
2023-02-22T19:50:34.153Z,10.15
2023-02-22T19:53:21.929Z,10.10
2023-02-22T19:56:14.657Z,10.03
2023-02-22T19:59:09.194Z,9.97
2023-02-22T20:01:57.450Z,9.89
2023-02-22T20:04:44.823Z,9.84
2023-02-22T20:07:33.164Z,9.77
2023-02-22T20:10:21.053Z,9.72
2023-02-22T20:13:11.716Z,9.66
2023-02-22T20:15:59.654Z,9.61
2023-02-22T20:18:49.648Z,9.55
2023-02-22T20:21:38.340Z,9.50
2023-02-22T20:24:28.593Z,9.45
2023-02-22T20:27:16.727Z,9.42
2023-02-22T20:30:06.887Z,9.36
2023-02-22T20:32:54.469Z,9.32
2023-02-22T20:35:42.303Z,9.28
2023-02-22T20:38:30.120Z,9.24
2023-02-22T20:41:25.296Z,9.23
2023-02-22T20:44:15.473Z,9.20
2023-02-22T20:47:05.095Z,9.18
2023-02-22T20:49:52.878Z,9.14
2023-02-22T20:52:40.556Z,9.10
2023-02-22T20:55:30.385Z,9.05
2023-02-22T20:58:20.747Z,9.01
2023-02-22T21:01:11.945Z,8.92
2023-02-22T21:04:06.891Z,8.86
2023-02-22T21:06:54.391Z,8.90
2023-02-22T21:09:41.880Z,8.89
2023-02-22T21:12:29.344Z,8.82
2023-02-22T21:15:17.252Z,8.77
2023-02-22T21:18:06.354Z,8.72
2023-02-22T21:20:55.107Z,8.67
2023-02-22T21:23:42.816Z,8.62
2023-02-22T21:26:34.881Z,8.59
2023-02-22T21:29:22.527Z,8.53
2023-02-22T21:32:10.345Z,8.50
2023-02-22T21:34:57.854Z,8.48
2023-02-22T21:37:46.616Z,8.43
2023-02-22T21:40:35.596Z,8.39
2023-02-22T21:43:25.067Z,8.34
2023-02-22T21:46:12.913Z,8.32
2023-02-22T21:49:00.443Z,8.29
2023-02-22T21:51:47.967Z,8.29
2023-02-22T21:54:36.931Z,8.25
2023-02-22T21:57:26.135Z,8.24
2023-02-22T22:00:17.512Z,8.22
2023-02-22T22:03:14.157Z,8.17
2023-02-22T22:06:01.559Z,8.14
2023-02-22T22:08:49.060Z,8.16
2023-02-22T22:11:37.882Z,8.12
2023-02-22T22:14:28.107Z,8.10
2023-02-22T22:17:15.411Z,8.06
2023-02-22T22:20:05.311Z,8.05
2023-02-22T22:22:53.978Z,8.02
2023-02-22T22:25:41.608Z,8.01
2023-02-22T22:28:31.469Z,8.00
2023-02-22T22:31:23.053Z,7.98
2023-02-22T22:34:11.286Z,7.97
2023-02-22T22:36:59.323Z,7.94
2023-02-22T22:39:47.038Z,7.92
2023-02-22T22:42:34.416Z,7.90
2023-02-22T22:45:23.103Z,7.91
2023-02-22T22:48:14.857Z,7.89
2023-02-22T22:51:09.302Z,7.88
2023-02-22T22:53:56.648Z,7.85
2023-02-22T22:56:44.183Z,7.85
2023-02-22T22:59:31.896Z,7.84
2023-02-22T23:02:20.948Z,7.82
2023-02-22T23:05:09.517Z,7.81
2023-02-22T23:07:58.211Z,7.80
2023-02-22T23:10:46.648Z,7.79
2023-02-22T23:13:34.018Z,7.79
2023-02-22T23:16:23.066Z,7.79
2023-02-22T23:19:12.035Z,7.80
2023-02-22T23:21:59.435Z,7.77
2023-02-22T23:24:46.737Z,7.75
2023-02-22T23:27:34.787Z,7.77
2023-02-22T23:30:22.266Z,7.76
2023-02-22T23:33:10.391Z,7.71
2023-02-22T23:35:59.190Z,7.70
2023-02-22T23:38:47.201Z,7.69
2023-02-22T23:41:36.436Z,7.66
2023-02-22T23:44:24.444Z,7.68
2023-02-22T23:47:12.332Z,7.63
2023-02-22T23:49:59.890Z,7.62
2023-02-22T23:52:49.881Z,7.60
2023-02-22T23:55:43.061Z,7.57
2023-02-22T23:58:31.865Z,7.55
